Flight Track Log - Related Links

Times and Time Zones

All times are in EDT time to prevent confusion due to time zone crossing. See the DAL3970 flight status page for this flight to view local times or setup timezone preferences in your user account.

Time Position Orientation Groundspeed Altitude Reporting Facility
EDT Latitude Longitude Course Direction KTS MPH feet Rate Location/Type
Sat 07:36:17 AM 44.7494 -89.6664 101° East 159 183 2,600  Level Minneapolis Center
Sat 07:37:18 AM 44.6992 -89.6519 168° South 194 223 4,600 2,164 Climbing Minneapolis Center
Sat 07:38:19 AM 44.6347 -89.6317 167° South 231 266 7,000 2,926 Climbing Minneapolis Center
Sat 07:39:00 AM 44.6872 -89.1348 107° East  Level FlightAware Approximate
Sat 07:39:19 AM 44.5711 -89.5728 147° Southeast 284 327 10,500  Level Minneapolis Center
Sat 07:40:00 AM 44.6792 -89.0000 109° East  Level FlightAware Approximate
Sat 07:40:20 AM 44.5350 -89.4606 114° Southeast 325 374 11,900  Level Minneapolis Center
Sat 07:41:00 AM 44.6482 -88.8706 101° East  Level FlightAware Approximate
Sat 07:41:20 AM 44.4939 -89.3278 113° Southeast 353 406 14,400  Level Minneapolis Center
Sat 07:42:21 AM 44.4542 -89.2006 114° Southeast 367 422 16,100 1,672 Climbing Minneapolis Center
Sat 07:43:22 AM 44.4097 -89.0564 113° Southeast 382 440 17,800 1,308 Climbing Minneapolis Center
Sat 07:44:34 AM 44.3697 -88.9378 115° Southeast 386 444 19,000 1,353 Climbing Minneapolis Center
Sat 07:45:35 AM 44.3086 -88.7447 114° Southeast 401 461 20,800 1,525 Climbing Minneapolis Center
Sat 07:46:36 AM 44.2617 -88.5942 113° Southeast 416 479 22,100 1,218 Climbing Minneapolis Center
Sat 07:47:48 AM 44.2050 -88.4189 114° Southeast 422 486 23,500 1,038 Climbing Minneapolis Center
Sat 07:48:49 AM 44.1567 -88.2664 114° Southeast 427 491 24,400 885 Climbing Minneapolis Center
Sat 07:49:50 AM 44.1056 -88.1106 115° Southeast 434 499 25,300 893 Climbing Minneapolis Center
Sat 07:50:50 AM 44.0544 -87.9536 114° Southeast 441 507 26,200 843 Climbing Minneapolis Center
Sat 07:51:51 AM 44.0028 -87.7953 114° Southeast 444 511 27,000 738 Climbing Minneapolis Center
Sat 07:52:52 AM 43.9497 -87.6369 115° Southeast 448 516 27,700 658 Climbing Minneapolis Center
Sat 07:54:17 AM 43.8775 -87.4228 115° Southeast 454 522 28,600 538 Climbing Minneapolis Center
Sat 07:55:17 AM 43.8197 -87.2519 115° Southeast 456 525 29,000 198 Climbing Minneapolis Center
Sat 07:56:18 AM 43.7644 -87.0886 115° Southeast 466 536 29,000  Level Minneapolis Center
Sat 07:57:19 AM 43.7114 -86.9233 114° Southeast 471 542 29,000  Level Minneapolis Center
Sat 07:58:20 AM 43.6669 -86.7528 110° East 472 543 29,000  Level Minneapolis Center
Sat 07:59:20 AM 43.6214 -86.5833 110° East 472 543 29,000  Level Minneapolis Center
Sat 08:00:21 AM 43.5761 -86.4128 110° East 472 543 29,000  Level Minneapolis Center
Sat 08:01:22 AM 43.5297 -86.2406 110° East 475 547 29,000  Level Minneapolis Center
Sat 08:02:22 AM 43.4833 -86.0694 110° East 476 548 29,000  Level Minneapolis Center
Sat 08:03:23 AM 43.4358 -85.8986 111° Southeast 475 547 29,000 -164 Level Minneapolis Center
Sat 08:04:48 AM 43.3697 -85.6594 111° Southeast 474 545 28,600 -736 Descending Minneapolis Center
Sat 08:05:09 AM 43.3500 -85.5944 113° Southeast 476 548 27,700 -2,348 Descending Cleveland Center
Sat 08:05:34 AM 43.3319 -85.5239 109° East 474 545 26,800 -2,163 Descending Chicago Center
Sat 08:06:35 AM 43.2853 -85.3625 112° Southeast 461 531 24,600 -2,211 Descending Chicago Center
Sat 08:07:09 AM 43.2556 -85.2586 111° Southeast 457 526 23,300 -1,021 Descending Cleveland Center
Sat 08:08:09 AM 43.2222 -85.0994 106° East 438 504 23,000 -150 Descending Cleveland Center
Sat 08:09:09 AM 43.1931 -84.9378 104° East 433 498 23,000  Level Cleveland Center
Sat 08:10:09 AM 43.1486 -84.7836 112° Southeast 428 493 23,000  Level Cleveland Center
Sat 08:11:09 AM 43.1042 -84.6300 112° Southeast 428 493 23,000  Level Cleveland Center
Sat 08:11:41 AM 43.0925 -84.5781 107° East 438 504 23,000 -1,419 Level Chicago Center
Sat 08:12:42 AM 43.0372 -84.3944 112° Southeast 436 502 20,800 -1,773 Descending Chicago Center
Sat 08:13:09 AM 43.0236 -84.3578 117° Southeast 433 498 20,400 -1,793 Descending Cleveland Center
Sat 08:14:09 AM 42.9747 -84.1986 113° Southeast 420 483 18,200 -2,000 Descending Cleveland Center
Sat 08:14:24 AM 42.9614 -84.1581 114° Southeast 405 466 17,900 -1,600 Descending Cleveland Center
Sat 08:15:09 AM 42.9350 -84.0631 111° Southeast 402 463 16,600 -1,975 Descending Cleveland Center
Sat 08:15:43 AM 42.9064 -83.9764 114° Southeast 388 447 15,300 -1,600 Descending Cleveland Center
Sat 08:16:09 AM 42.8875 -83.9100 111° Southeast 395 455 15,000 -2,000 Descending Cleveland Center
Sat 08:16:43 AM 42.8667 -83.8325 110° East 383 441 13,300 -2,300 Descending Cleveland Center
Sat 08:17:09 AM 42.8533 -83.7922 114° Southeast 383 441 12,700 -1,475 Descending Cleveland Center
Sat 08:17:44 AM 42.8050 -83.7217 133° Southeast 360 414 11,800 -1,200 Descending Cleveland Center
Sat 08:18:09 AM 42.7828 -83.7036 149° Southeast 348 400 11,500 -1,082 Descending Cleveland Center
Sat 08:18:45 AM 42.7272 -83.6725 158° South 302 348 10,700 -1,200 Descending Cleveland Center
Sat 08:19:09 AM 42.7047 -83.6603 158° South 318 366 10,300 -1,222 Descending Cleveland Center
Sat 08:19:39 AM 42.6594 -83.6297 154° Southeast 287 330 9,600 -1,100 Descending Cleveland Center
Sat 08:20:09 AM 42.6394 -83.6006 133° Southeast 299 344 9,200 -1,068 Descending Cleveland Center
Sat 08:20:52 AM 42.5950 -83.5447 137° Southeast 283 326 8,300 -1,100 Descending Cleveland Center
Sat 08:21:09 AM 42.5831 -83.5272 133° Southeast 287 330 8,100 -1,116 Descending Cleveland Center
Sat 08:21:35 AM 42.5506 -83.4892 139° Southeast 280 322 7,500 -1,100 Descending Cleveland Center
Sat 08:22:09 AM 42.5264 -83.4542 133° Southeast 281 323 7,000 -1,075 Descending Cleveland Center
Sat 08:22:42 AM 42.4922 -83.4103 137° Southeast 268 308 6,300 -1,100 Descending Cleveland Center
Sat 08:23:09 AM 42.4719 -83.3869 140° Southeast 276 318 5,900 -1,082 Descending Cleveland Center
Sat 08:23:43 AM 42.4375 -83.3461 139° Southeast 256 295 5,200 -1,100 Descending Cleveland Center
Sat 08:24:09 AM 42.4169 -83.3283 147° Southeast 270 311 4,800 -1,180 Descending Cleveland Center
Sat 08:24:44 AM 42.3756 -83.3236 175° South 216 249 4,000 -1,200 Descending Cleveland Center
Sat 08:25:44 AM 42.3211 -83.3242 180° South 173 199 2,900 -1,100 Descending Cleveland Center

Login

Don't have an account? Register now (free) for customized features, flight alerts, and more!